createdAt,value
2019-05-16T00:01:51.033Z,11.67
2019-05-16T00:04:23.176Z,11.60
2019-05-16T00:06:54.823Z,11.47
2019-05-16T00:09:28.589Z,11.50
2019-05-16T00:12:00.435Z,12.47
2019-05-16T00:14:32.290Z,11.43
2019-05-16T00:17:04.495Z,11.60
2019-05-16T00:19:38.119Z,12.20
2019-05-16T00:22:09.991Z,11.70
2019-05-16T00:24:41.790Z,11.60
2019-05-16T00:27:13.542Z,10.20
2019-05-16T00:29:45.673Z,11.70
2019-05-16T00:32:19.109Z,12.30
2019-05-16T00:34:51.392Z,12.10
2019-05-16T00:37:23.391Z,12.87
2019-05-16T00:39:54.847Z,11.93
2019-05-16T00:42:28.672Z,11.80
2019-05-16T00:45:01.033Z,11.63
2019-05-16T00:47:32.944Z,12.73
2019-05-16T00:50:05.159Z,13.33
2019-05-16T00:52:39.114Z,13.10
2019-05-16T00:55:10.822Z,12.83
2019-05-16T00:57:43.212Z,12.50
2019-05-16T01:00:18.049Z,13.17
2019-05-16T01:02:49.551Z,12.47
2019-05-16T01:05:21.733Z,12.70
2019-05-16T01:07:53.593Z,12.23
2019-05-16T01:10:25.592Z,12.20
2019-05-16T01:12:58.461Z,12.20
2019-05-16T01:15:30.564Z,11.47
2019-05-16T01:18:02.558Z,12.80
2019-05-16T01:20:34.566Z,12.23
2019-05-16T01:23:08.734Z,13.77
2019-05-16T01:25:39.932Z,12.47
2019-05-16T01:28:11.680Z,12.47
2019-05-16T01:30:43.722Z,13.03
2019-05-16T01:33:15.502Z,12.27
2019-05-16T01:35:47.948Z,12.90
2019-05-16T01:38:20.088Z,12.40
2019-05-16T01:40:53.222Z,11.83
2019-05-16T01:43:24.890Z,12.10
2019-05-16T01:45:57.822Z,11.77
2019-05-16T01:48:31.945Z,12.80
2019-05-16T01:51:03.581Z,12.77
2019-05-16T01:53:35.154Z,13.17
2019-05-16T01:56:08.570Z,12.57
2019-05-16T01:58:40.218Z,13.07
2019-05-16T02:01:15.710Z,13.27
2019-05-16T02:03:48.123Z,12.17
2019-05-16T02:06:20.186Z,11.77
2019-05-16T02:08:51.779Z,14.03
2019-05-16T02:11:23.564Z,12.67
2019-05-16T02:13:58.591Z,12.80
2019-05-16T02:16:31.073Z,13.67
2019-05-16T02:19:02.679Z,12.67
2019-05-16T02:21:34.711Z,12.40
2019-05-16T02:24:08.687Z,13.23
2019-05-16T02:26:40.289Z,13.07
2019-05-16T02:29:13.762Z,13.07
2019-05-16T02:31:45.508Z,12.17
2019-05-16T02:34:17.578Z,12.43
2019-05-16T02:37:10.275Z,11.83
2019-05-16T02:39:30.324Z,12.07
2019-05-16T02:42:02.074Z,10.47
2019-05-16T02:44:33.912Z,10.30
2019-05-16T02:47:05.871Z,9.23
2019-05-16T02:49:41.623Z,10.43
2019-05-16T02:52:11.326Z,9.80
2019-05-16T02:54:43.159Z,10.03
2019-05-16T02:57:15.016Z,10.17
2019-05-16T02:59:47.121Z,11.07
2019-05-16T03:02:20.529Z,10.67
2019-05-16T03:04:52.500Z,11.07
2019-05-16T03:07:37.569Z,11.17
2019-05-16T03:10:01.488Z,10.80
2019-05-16T03:12:34.375Z,12.60
2019-05-16T03:15:07.114Z,11.37
2019-05-16T03:17:41.633Z,12.97
2019-05-16T03:20:14.120Z,13.73
2019-05-16T03:22:52.008Z,12.87
2019-05-16T03:25:22.473Z,13.30
2019-05-16T03:27:54.294Z,15.07
2019-05-16T03:30:26.309Z,13.77
2019-05-16T03:33:03.833Z,14.13
2019-05-16T03:35:34.209Z,13.60
2019-05-16T03:38:06.251Z,13.97
2019-05-16T03:40:41.029Z,14.63
2019-05-16T03:43:12.098Z,14.07
2019-05-16T03:45:44.375Z,13.97
2019-05-16T03:48:16.055Z,14.63
2019-05-16T03:50:50.493Z,14.17
2019-05-16T03:53:22.673Z,15.00
2019-05-16T03:55:54.790Z,14.43
2019-05-16T03:58:26.229Z,13.93
2019-05-16T04:01:01.820Z,14.20
2019-05-16T04:03:33.223Z,15.00
2019-05-16T04:06:05.008Z,14.80
2019-05-16T04:08:36.788Z,15.20
2019-05-16T04:11:11.370Z,13.53
2019-05-16T04:13:41.800Z,13.97
2019-05-16T04:16:13.794Z,13.87
2019-05-16T04:18:45.486Z,13.83
2019-05-16T04:21:18.690Z,13.63
2019-05-16T04:23:50.769Z,14.83
2019-05-16T04:26:22.774Z,13.27
2019-05-16T04:28:54.799Z,15.30
2019-05-16T04:31:26.535Z,15.53
2019-05-16T04:34:01.120Z,16.00
2019-05-16T04:36:32.724Z,14.90
2019-05-16T04:39:07.553Z,15.30
2019-05-16T04:41:40.972Z,16.23
2019-05-16T04:44:12.851Z,16.03
2019-05-16T04:46:44.500Z,16.20
2019-05-16T04:49:16.401Z,17.73
2019-05-16T04:51:51.368Z,17.97
2019-05-16T04:54:21.919Z,17.63
2019-05-16T04:56:53.483Z,20.17
2019-05-16T04:59:25.442Z,19.97
2019-05-16T05:01:57.253Z,20.63
2019-05-16T05:04:30.564Z,20.03
2019-05-16T05:07:02.869Z,21.23
2019-05-16T05:09:34.498Z,20.67
2019-05-16T05:12:06.446Z,20.40
2019-05-16T05:14:41.450Z,21.07
2019-05-16T05:17:12.294Z,21.13
2019-05-16T05:19:45.594Z,20.40
2019-05-16T05:22:17.150Z,21.73
2019-05-16T05:24:50.775Z,20.97
2019-05-16T05:27:22.889Z,21.50
2019-05-16T05:29:54.644Z,21.47
2019-05-16T05:32:26.810Z,23.43
2019-05-16T05:34:59.914Z,22.43
2019-05-16T05:37:32.190Z,23.53
2019-05-16T05:40:05.226Z,26.30
2019-05-16T05:42:39.938Z,25.30
2019-05-16T05:45:13.299Z,21.53
2019-05-16T05:47:45.596Z,22.17
2019-05-16T05:50:20.223Z,23.27
2019-05-16T05:52:51.511Z,21.67
2019-05-16T05:55:23.132Z,21.30
2019-05-16T05:57:55.090Z,20.83
2019-05-16T06:00:30.134Z,20.00
2019-05-16T06:03:00.729Z,28.97
2019-05-16T06:05:32.697Z,24.87
2019-05-16T06:08:04.537Z,18.90
2019-05-16T06:10:36.343Z,17.83
2019-05-16T06:13:10.957Z,19.37
2019-05-16T06:15:44.693Z,18.97
2019-05-16T06:18:16.520Z,20.17
2019-05-16T06:20:51.255Z,20.10
2019-05-16T06:23:22.578Z,15.60
2019-05-16T06:25:54.740Z,13.80
2019-05-16T06:28:26.288Z,13.48
2019-05-16T06:31:01.416Z,13.68
2019-05-16T06:33:31.771Z,11.75
2019-05-16T06:36:03.818Z,11.50
2019-05-16T06:38:35.830Z,11.78
2019-05-16T06:41:07.449Z,11.45
2019-05-16T06:43:39.995Z,11.20
2019-05-16T06:46:12.754Z,9.43
2019-05-16T06:48:44.196Z,9.83
2019-05-16T06:51:16.071Z,10.25
2019-05-16T06:53:49.829Z,10.43
2019-05-16T06:56:21.377Z,10.63
2019-05-16T06:58:53.731Z,11.03
2019-05-16T07:01:29.652Z,10.78
2019-05-16T07:04:01.117Z,10.72
2019-05-16T07:06:51.744Z,10.13
2019-05-16T07:09:10.336Z,9.38
2019-05-16T07:11:41.457Z,9.13
2019-05-16T07:14:13.735Z,9.43
2019-05-16T07:16:45.800Z,9.48
2019-05-16T07:19:17.864Z,9.48
2019-05-16T07:21:50.787Z,8.58
2019-05-16T07:24:23.119Z,8.08
2019-05-16T07:26:54.815Z,9.08
2019-05-16T07:29:27.767Z,8.28
2019-05-16T07:32:01.088Z,8.50
2019-05-16T07:34:32.961Z,8.45
2019-05-16T07:37:04.981Z,8.38
2019-05-16T07:39:38.662Z,8.38
2019-05-16T07:42:11.407Z,8.70
2019-05-16T07:44:43.263Z,8.33
2019-05-16T07:47:14.941Z,8.03
2019-05-16T07:49:46.945Z,7.70
2019-05-16T07:52:20.895Z,7.67
2019-05-16T07:54:52.279Z,6.73
2019-05-16T07:57:24.315Z,7.70
2019-05-16T08:00:00.320Z,7.35
2019-05-16T08:02:40.375Z,6.62
2019-05-16T08:05:14.826Z,6.72
2019-05-16T08:07:50.828Z,6.45
2019-05-16T08:10:37.122Z,6.70
2019-05-16T08:13:03.316Z,6.47
2019-05-16T08:15:35.071Z,5.85
2019-05-16T08:18:06.951Z,5.87
2019-05-16T08:20:41.274Z,6.45
2019-05-16T08:23:13.426Z,5.97
2019-05-16T08:25:45.586Z,6.20
2019-05-16T08:28:20.518Z,5.45
2019-05-16T08:30:52.851Z,6.15
2019-05-16T08:33:26.931Z,5.30
2019-05-16T08:36:04.698Z,5.17
2019-05-16T08:38:33.877Z,4.42
2019-05-16T08:41:11.986Z,4.85
2019-05-16T08:43:41.286Z,4.15
2019-05-16T08:46:12.596Z,4.87
2019-05-16T08:48:44.387Z,5.03
2019-05-16T08:51:16.165Z,4.78
2019-05-16T08:53:50.438Z,4.70
2019-05-16T08:56:22.557Z,4.70
2019-05-16T08:58:55.083Z,4.35
2019-05-16T09:01:27.197Z,4.90
2019-05-16T09:04:01.388Z,4.85
2019-05-16T09:06:34.047Z,4.80
2019-05-16T09:10:19.015Z,4.30
2019-05-16T09:11:45.112Z,4.37
2019-05-16T09:14:17.141Z,5.00
2019-05-16T09:16:50.580Z,4.90
2019-05-16T09:19:27.531Z,4.60
2019-05-16T09:21:59.305Z,3.92
2019-05-16T09:24:31.256Z,4.45
2019-05-16T09:27:05.131Z,4.17
2019-05-16T09:29:37.746Z,4.12
2019-05-16T09:32:17.112Z,3.90
2019-05-16T09:34:43.686Z,3.35
2019-05-16T09:37:17.714Z,3.20
2019-05-16T09:39:49.021Z,3.50
2019-05-16T09:42:21.297Z,3.83
2019-05-16T09:44:53.257Z,3.50
2019-05-16T09:47:27.899Z,4.15
2019-05-16T09:49:58.486Z,3.10
2019-05-16T09:52:30.628Z,2.95
2019-05-16T09:55:03.115Z,4.00
2019-05-16T09:57:37.602Z,3.65
2019-05-16T10:00:13.526Z,3.42
2019-05-16T10:02:47.509Z,4.25
2019-05-16T10:05:21.309Z,3.37
2019-05-16T10:08:10.223Z,3.55
2019-05-16T10:10:42.226Z,3.30
2019-05-16T10:13:18.303Z,3.45
2019-05-16T10:15:50.455Z,3.47
2019-05-16T10:18:22.050Z,3.20
2019-05-16T10:20:58.974Z,4.03
2019-05-16T10:23:30.590Z,3.98
2019-05-16T10:26:05.026Z,3.45
2019-05-16T10:28:38.372Z,3.12
2019-05-16T10:31:12.588Z,3.52
2019-05-16T10:33:47.665Z,3.17
2019-05-16T10:36:21.590Z,3.30
2019-05-16T10:38:59.043Z,3.30
2019-05-16T10:41:27.469Z,4.42
2019-05-16T10:44:00.680Z,4.35
2019-05-16T10:46:32.782Z,3.00
2019-05-16T10:49:05.105Z,3.20
2019-05-16T10:51:37.858Z,3.10
2019-05-16T10:54:18.535Z,3.10
2019-05-16T10:56:49.951Z,3.20
2019-05-16T10:59:54.581Z,3.35
2019-05-16T11:02:27.546Z,3.22
2019-05-16T11:05:22.624Z,3.47
2019-05-16T11:07:38.414Z,2.85
2019-05-16T11:10:21.875Z,2.85
2019-05-16T11:13:02.140Z,3.10
2019-05-16T11:15:42.109Z,3.58
2019-05-16T11:18:17.403Z,3.77
2019-05-16T11:20:59.557Z,3.33
2019-05-16T11:23:31.913Z,2.60
2019-05-16T11:26:03.993Z,3.10
2019-05-16T11:28:36.985Z,3.10
2019-05-16T11:31:09.229Z,2.72
2019-05-16T11:33:41.276Z,2.75
2019-05-16T11:36:16.567Z,2.80
2019-05-16T11:38:48.000Z,2.50
2019-05-16T11:41:19.923Z,3.20
2019-05-16T11:43:54.203Z,2.80
2019-05-16T11:46:28.175Z,3.12
2019-05-16T11:49:00.112Z,2.65
2019-05-16T11:51:32.024Z,2.80
2019-05-16T11:54:06.771Z,2.67
2019-05-16T11:56:41.955Z,2.90
2019-05-16T11:59:14.395Z,2.95
2019-05-16T12:01:47.414Z,2.60
2019-05-16T12:04:20.078Z,3.08
2019-05-16T12:06:52.027Z,3.02
2019-05-16T12:09:33.474Z,3.72
2019-05-16T12:12:04.241Z,3.77
2019-05-16T12:14:37.260Z,3.35
2019-05-16T12:17:08.780Z,3.58
2019-05-16T12:19:43.909Z,3.50
2019-05-16T12:22:14.436Z,3.40
2019-05-16T12:24:47.709Z,3.30
2019-05-16T12:27:20.046Z,3.37
2019-05-16T12:29:59.613Z,3.40
2019-05-16T12:32:28.393Z,4.12
2019-05-16T12:35:01.443Z,3.95
2019-05-16T12:37:37.227Z,3.47
2019-05-16T12:40:10.095Z,3.90
2019-05-16T12:42:41.571Z,4.00
2019-05-16T12:45:13.590Z,3.98
2019-05-16T12:47:47.253Z,4.80
2019-05-16T12:50:19.848Z,4.37
2019-05-16T12:52:51.691Z,3.77
2019-05-16T12:55:24.088Z,4.00
2019-05-16T12:58:11.839Z,4.50
2019-05-16T13:00:29.924Z,4.85
2019-05-16T13:03:01.723Z,4.20
2019-05-16T13:05:37.575Z,4.58
2019-05-16T13:08:09.812Z,4.50
2019-05-16T13:10:41.379Z,4.62
2019-05-16T13:13:13.531Z,4.58
2019-05-16T13:15:47.519Z,4.10
2019-05-16T13:18:18.515Z,4.40
2019-05-16T13:20:50.530Z,4.75
2019-05-16T13:23:22.009Z,4.70
2019-05-16T13:25:57.479Z,4.62
2019-05-16T13:28:28.812Z,4.55
2019-05-16T13:31:00.987Z,4.58
2019-05-16T13:33:32.670Z,4.72
2019-05-16T13:36:04.260Z,4.55
2019-05-16T13:39:08.047Z,4.62
2019-05-16T13:41:48.057Z,4.90
2019-05-16T13:44:34.182Z,4.95
2019-05-16T13:47:07.677Z,5.40
2019-05-16T13:49:40.105Z,5.08
2019-05-16T13:52:12.750Z,5.50
2019-05-16T13:54:45.764Z,5.35
2019-05-16T13:57:18.447Z,6.28
2019-05-16T13:59:50.814Z,5.58
2019-05-16T14:02:23.165Z,5.72
2019-05-16T14:04:57.472Z,6.42
2019-05-16T14:07:29.399Z,5.95
2019-05-16T14:10:01.303Z,6.03
2019-05-16T14:12:36.489Z,6.17
2019-05-16T14:15:09.065Z,6.22
2019-05-16T14:17:41.017Z,6.33
2019-05-16T14:20:15.042Z,7.22
2019-05-16T14:22:48.040Z,6.62
2019-05-16T14:25:23.034Z,6.55
2019-05-16T14:27:56.819Z,7.78
2019-05-16T14:30:28.763Z,7.42
2019-05-16T14:33:02.498Z,7.75
2019-05-16T14:35:34.812Z,7.75
2019-05-16T14:38:06.715Z,7.45
2019-05-16T14:40:50.504Z,8.00
2019-05-16T14:43:22.128Z,9.30
2019-05-16T14:45:54.079Z,7.42
2019-05-16T14:48:27.857Z,7.70
2019-05-16T14:50:59.138Z,8.18
2019-05-16T14:53:31.404Z,7.95
2019-05-16T14:56:03.493Z,8.30
2019-05-16T14:58:37.794Z,7.60
2019-05-16T15:01:09.321Z,7.33
2019-05-16T15:03:42.967Z,8.48
2019-05-16T15:06:17.975Z,8.30
2019-05-16T15:08:48.937Z,8.30
2019-05-16T15:11:20.474Z,7.45
2019-05-16T15:13:52.426Z,6.90
2019-05-16T15:16:24.283Z,7.42
2019-05-16T15:18:57.548Z,7.60
2019-05-16T15:21:29.520Z,6.42
2019-05-16T15:24:01.298Z,7.20
2019-05-16T15:26:33.263Z,7.62
2019-05-16T15:29:08.214Z,6.90
2019-05-16T15:31:39.603Z,7.60
2019-05-16T15:34:11.724Z,7.00
2019-05-16T15:36:43.306Z,7.50
2019-05-16T15:39:16.959Z,7.45
2019-05-16T15:41:50.671Z,7.33
2019-05-16T15:44:27.221Z,8.13
2019-05-16T15:46:59.976Z,8.13
2019-05-16T15:49:37.688Z,8.35
2019-05-16T15:52:11.269Z,8.10
2019-05-16T15:54:45.193Z,9.08
2019-05-16T15:57:17.727Z,7.50
2019-05-16T15:59:49.910Z,14.87
2019-05-16T16:02:22.656Z,6.90
2019-05-16T16:04:57.431Z,7.62
2019-05-16T16:07:29.489Z,7.00
2019-05-16T16:10:06.833Z,7.30
2019-05-16T16:12:47.743Z,6.87
2019-05-16T16:15:20.422Z,7.97
2019-05-16T16:17:52.239Z,7.05
2019-05-16T16:20:28.086Z,7.00
2019-05-16T16:23:00.231Z,8.38
2019-05-16T16:25:32.345Z,8.90
2019-05-16T16:28:07.130Z,6.95
2019-05-16T16:30:39.132Z,8.00
2019-05-16T16:33:25.147Z,6.92
2019-05-16T16:35:57.554Z,7.33
2019-05-16T16:38:32.497Z,7.42
2019-05-16T16:41:18.193Z,7.42
2019-05-16T16:43:53.594Z,7.83
2019-05-16T16:46:40.778Z,7.58
2019-05-16T16:49:18.649Z,8.75
2019-05-16T16:51:51.288Z,7.72
2019-05-16T16:54:58.022Z,9.00
2019-05-16T16:57:31.320Z,10.18
2019-05-16T17:00:08.088Z,12.65
2019-05-16T17:06:18.175Z,16.15
2019-05-16T17:13:13.415Z,11.90
2019-05-16T17:16:02.062Z,12.78
2019-05-16T17:19:13.242Z,13.80
2019-05-16T17:22:21.658Z,10.63
2019-05-16T17:25:47.808Z,8.83
2019-05-16T17:28:17.553Z,10.95
2019-05-16T17:30:49.570Z,11.35
2019-05-16T17:33:21.578Z,9.30
2019-05-16T17:35:53.506Z,8.50
2019-05-16T17:39:19.571Z,8.78
2019-05-16T17:46:36.842Z,8.93
2019-05-16T17:49:26.693Z,9.38
2019-05-16T17:56:48.726Z,11.18
2019-05-16T17:59:27.650Z,9.68
2019-05-16T18:02:12.862Z,8.75
2019-05-16T18:04:47.128Z,10.10
2019-05-16T18:07:20.727Z,10.45
2019-05-16T18:09:56.836Z,10.95
2019-05-16T18:12:28.958Z,12.95
2019-05-16T18:15:08.410Z,10.87
2019-05-16T18:17:46.780Z,9.48
2019-05-16T18:20:22.501Z,9.73
2019-05-16T18:22:56.961Z,9.17
2019-05-16T18:25:36.840Z,10.67
2019-05-16T18:28:12.133Z,10.87
2019-05-16T18:30:47.075Z,15.85
2019-05-16T18:33:21.552Z,12.83
2019-05-16T18:35:57.978Z,11.03
2019-05-16T18:38:30.878Z,11.10
2019-05-16T18:41:07.808Z,11.12
2019-05-16T18:43:40.185Z,10.67
2019-05-16T18:46:12.126Z,10.53
2019-05-16T18:48:46.992Z,11.40
2019-05-16T18:51:18.586Z,11.33
2019-05-16T18:53:50.857Z,11.07
2019-05-16T18:56:27.169Z,17.63
2019-05-16T18:58:59.141Z,16.73
2019-05-16T19:01:31.601Z,14.00
2019-05-16T19:04:06.705Z,10.17
2019-05-16T19:06:37.910Z,10.47
2019-05-16T19:09:10.563Z,9.90
2019-05-16T19:11:52.735Z,9.97
2019-05-16T19:14:28.663Z,9.70
2019-05-16T19:17:00.650Z,9.37
2019-05-16T19:19:37.596Z,9.60
2019-05-16T19:22:10.152Z,9.13
2019-05-16T19:24:48.352Z,9.63
2019-05-16T19:27:23.517Z,10.07
2019-05-16T19:29:58.795Z,9.90
2019-05-16T19:32:31.715Z,10.07
2019-05-16T19:35:03.987Z,10.07
2019-05-16T19:37:40.378Z,10.90
2019-05-16T19:40:11.463Z,11.93
2019-05-16T19:42:47.149Z,11.07
2019-05-16T19:45:19.341Z,11.13
2019-05-16T19:47:50.956Z,11.25
2019-05-16T19:50:26.791Z,11.17
2019-05-16T19:52:58.977Z,11.57
2019-05-16T19:55:30.641Z,13.30
2019-05-16T19:58:03.063Z,13.63
2019-05-16T20:00:37.173Z,18.30
2019-05-16T20:03:08.254Z,15.90
2019-05-16T20:05:40.282Z,17.80
2019-05-16T20:08:12.721Z,16.20
2019-05-16T20:10:44.271Z,13.27
2019-05-16T20:13:16.589Z,11.60
2019-05-16T20:15:49.059Z,10.83
2019-05-16T20:18:21.012Z,9.97
2019-05-16T20:20:56.769Z,11.00
2019-05-16T20:23:28.827Z,12.80
2019-05-16T20:26:00.674Z,15.00
2019-05-16T20:28:32.495Z,15.03
2019-05-16T20:31:04.043Z,14.33
2019-05-16T20:33:37.622Z,12.87
2019-05-16T20:36:09.789Z,12.83
2019-05-16T20:38:41.958Z,11.37
2019-05-16T20:41:13.593Z,10.83
2019-05-16T20:43:47.354Z,10.63
2019-05-16T20:46:19.124Z,10.57
2019-05-16T20:48:51.199Z,10.50
2019-05-16T20:51:23.319Z,10.13
2019-05-16T20:53:57.739Z,10.50
2019-05-16T20:56:28.911Z,10.90
2019-05-16T20:59:00.931Z,10.30
2019-05-16T21:01:33.007Z,10.53
2019-05-16T21:04:07.023Z,10.50
2019-05-16T21:06:38.768Z,10.23
2019-05-16T21:09:46.350Z,11.10
2019-05-16T21:12:19.258Z,10.93
2019-05-16T21:14:51.216Z,10.80
2019-05-16T21:17:23.668Z,10.78
2019-05-16T21:19:57.700Z,10.30
2019-05-16T21:22:32.161Z,11.33
2019-05-16T21:25:05.135Z,11.28
2019-05-16T21:27:38.535Z,11.40
2019-05-16T21:30:11.223Z,10.90
2019-05-16T21:32:42.919Z,10.90
2019-05-16T21:35:15.094Z,10.50
2019-05-16T21:37:46.972Z,10.97
2019-05-16T21:40:19.193Z,10.80
2019-05-16T21:42:51.247Z,10.55
2019-05-16T21:45:22.810Z,10.27
2019-05-16T21:47:56.780Z,10.20
2019-05-16T21:50:28.338Z,10.30
2019-05-16T21:53:00.606Z,10.32
2019-05-16T21:55:32.873Z,10.82
2019-05-16T21:58:04.642Z,9.53
2019-05-16T22:00:43.840Z,10.68
2019-05-16T22:03:16.148Z,11.00
2019-05-16T22:05:48.505Z,11.57
2019-05-16T22:08:20.133Z,10.90
2019-05-16T22:10:51.889Z,11.12
2019-05-16T22:13:24.348Z,10.37
2019-05-16T22:15:57.019Z,10.97
2019-05-16T22:18:30.228Z,10.53
2019-05-16T22:21:11.828Z,10.90
2019-05-16T22:23:43.734Z,10.23
2019-05-16T22:26:16.841Z,9.73
2019-05-16T22:28:51.822Z,9.73
2019-05-16T22:31:26.902Z,9.65
2019-05-16T22:34:01.379Z,10.00
2019-05-16T22:36:37.995Z,9.48
2019-05-16T22:39:12.555Z,10.20
2019-05-16T22:41:46.492Z,9.38
2019-05-16T22:44:18.022Z,10.63
2019-05-16T22:46:50.288Z,10.10
2019-05-16T22:49:39.775Z,10.97
2019-05-16T22:52:12.189Z,10.70
2019-05-16T22:54:44.305Z,10.33
2019-05-16T22:57:17.581Z,10.05
2019-05-16T22:59:50.172Z,10.10
2019-05-16T23:02:22.240Z,10.53
2019-05-16T23:04:53.812Z,10.28
2019-05-16T23:07:27.475Z,10.75
2019-05-16T23:09:59.815Z,10.13
2019-05-16T23:12:31.931Z,10.40
2019-05-16T23:15:06.437Z,10.47
2019-05-16T23:17:37.793Z,10.65
2019-05-16T23:20:09.867Z,11.03
2019-05-16T23:22:41.929Z,10.48
2019-05-16T23:25:13.950Z,11.28
2019-05-16T23:27:47.442Z,11.73
2019-05-16T23:30:19.873Z,11.50
2019-05-16T23:32:51.663Z,11.77
2019-05-16T23:35:23.655Z,11.45
2019-05-16T23:37:56.977Z,11.53
2019-05-16T23:40:29.569Z,11.15
2019-05-16T23:43:01.288Z,12.03
2019-05-16T23:45:33.222Z,10.98
2019-05-16T23:48:09.539Z,11.45
2019-05-16T23:50:38.587Z,11.50
2019-05-16T23:53:10.719Z,11.80
2019-05-16T23:55:43.395Z,12.07
2019-05-16T23:58:15.759Z,12.27
